Time;durP1;ratioP1;P1;durP2;ratioP2;P2;SDS_P1;SDS_P2;PMS_P1;PMS_P2;Temp;Humidity;BMP_temperature;BMP_pressure;BME280_temperature;BME280_humidity;BME280_pressure;Samples;Min_cycle;Max_cycle;Signal;HPM_P1;HPM_P2
2023/07/11 00:01:08;;;;;;;20.03;18.37;;;;;;;15.53;100.00;101863.25;4988465;28;20465;-43
2023/07/11 00:03:36;;;;;;;20.70;19.10;;;;;;;15.52;100.00;101864.31;4988648;28;21062;-43
2023/07/11 00:06:07;;;;;;;20.03;18.33;;;;;;;15.49;100.00;101854.78;4988175;28;21219;-42
2023/07/11 00:08:36;;;;;;;21.30;19.50;;;;;;;15.47;100.00;101853.34;4988970;28;20460;-46
2023/07/11 00:11:05;;;;;;;20.07;18.37;;;;;;;15.45;100.00;101864.25;4988454;28;20603;-46
2023/07/11 00:13:33;;;;;;;21.10;19.17;;;;;;;15.41;100.00;101857.59;4988387;28;20418;-45
2023/07/11 00:16:05;;;;;;;19.67;18.27;;;;;;;15.39;100.00;101856.16;4988067;28;20557;-49
2023/07/11 00:18:34;;;;;;;20.10;18.50;;;;;;;15.37;100.00;101860.91;4988459;28;20970;-42
2023/07/11 00:21:02;;;;;;;18.83;17.40;;;;;;;15.34;100.00;101859.47;4990918;28;20528;-49
2023/07/11 00:23:30;;;;;;;21.20;19.50;;;;;;;15.32;100.00;101866.88;4992387;28;20473;-43
2023/07/11 00:25:58;;;;;;;19.00;17.60;;;;;;;15.29;100.00;101861.91;4991566;28;20497;-44
2023/07/11 00:28:25;;;;;;;20.63;18.60;;;;;;;15.27;100.00;101860.44;4992387;28;20448;-43
2023/07/11 00:30:53;;;;;;;19.40;17.50;;;;;;;15.24;100.00;101867.06;4992467;28;20496;-49
2023/07/11 00:33:23;;;;;;;19.20;17.67;;;;;;;15.21;100.00;101858.56;4992100;28;20469;-43
2023/07/11 00:35:52;;;;;;;19.60;18.10;;;;;;;15.20;100.00;101851.53;4991845;28;20464;-46
2023/07/11 00:38:22;;;;;;;20.37;18.47;;;;;;;15.19;100.00;101849.88;4992088;28;20433;-43
2023/07/11 00:40:51;;;;;;;18.63;16.83;;;;;;;15.17;100.00;101847.38;4992503;28;20458;-45
2023/07/11 00:43:22;;;;;;;19.73;18.03;;;;;;;15.16;100.00;101848.41;4991531;28;21022;-41
2023/07/11 00:46:14;;;;;;;21.07;19.07;;;;;;;15.11;100.00;101840.13;4992029;28;20461;-42
2023/07/11 00:48:48;;;;;;;20.67;19.00;;;;;;;15.08;100.00;101831.66;4992099;28;20470;-43
2023/07/11 00:51:20;;;;;;;21.70;19.47;;;;;;;15.06;100.00;101831.00;4991841;28;20457;-43
2023/07/11 00:53:48;;;;;;;21.60;19.37;;;;;;;15.04;100.00;101835.75;4991774;28;20520;-44
2023/07/11 00:56:21;;;;;;;20.00;18.10;;;;;;;15.02;100.00;101830.59;4991667;28;20544;-44
2023/07/11 00:58:49;;;;;;;22.00;20.20;;;;;;;15.00;100.00;101826.41;4991772;28;20430;-43
2023/07/11 01:01:19;;;;;;;18.20;16.77;;;;;;;14.98;100.00;101818.56;4991830;28;20987;-44
2023/07/11 01:03:50;;;;;;;18.50;16.70;;;;;;;14.96;100.00;101826.81;4994274;28;20895;-47
2023/07/11 01:06:21;;;;;;;20.40;18.57;;;;;;;14.94;100.00;101820.81;4994339;28;20465;-50
2023/07/11 01:08:50;;;;;;;17.70;16.50;;;;;;;14.93;100.00;101821.84;5008664;28;20519;-44
2023/07/11 01:11:19;;;;;;;19.00;17.60;;;;;;;14.93;100.00;101826.41;5014002;28;20536;-43
2023/07/11 01:13:48;;;;;;;18.87;17.37;;;;;;;14.88;100.00;101816.25;5014474;28;20433;-45
2023/07/11 01:16:16;;;;;;;20.50;18.93;;;;;;;14.86;100.00;101814.78;5013909;28;20935;-43
2023/07/11 01:18:44;;;;;;;19.07;17.33;;;;;;;14.83;100.00;101817.88;5014202;28;20935;-45
2023/07/11 01:21:17;;;;;;;19.33;18.00;;;;;;;14.80;100.00;101811.03;5014119;28;21009;-45
2023/07/11 01:23:45;;;;;;;21.37;19.23;;;;;;;14.77;100.00;101822.19;5014031;28;20874;-43
2023/07/11 01:26:15;;;;;;;19.77;18.20;;;;;;;14.77;100.00;101821.34;5013835;28;20465;-42
2023/07/11 01:28:43;;;;;;;19.80;18.30;;;;;;;14.75;100.00;101820.72;5014139;28;20444;-44
2023/07/11 01:31:11;;;;;;;19.40;17.93;;;;;;;14.72;100.00;101813.91;5013228;28;20453;-45
2023/07/11 01:33:40;;;;;;;20.87;19.23;;;;;;;14.72;100.00;101818.44;5010583;28;20524;-45
2023/07/11 01:36:08;;;;;;;21.50;19.53;;;;;;;14.70;100.00;101823.16;5013516;28;20535;-42
2023/07/11 01:38:38;;;;;;;20.83;19.00;;;;;;;14.70;100.00;101813.25;5014050;28;20429;-48
2023/07/11 01:41:06;;;;;;;20.60;19.10;;;;;;;14.70;100.00;101813.25;5013805;28;20545;-44
2023/07/11 01:43:34;;;;;;;24.30;21.27;;;;;;;14.70;100.00;101802.50;5013331;28;20473;-43
2023/07/11 01:46:02;;;;;;;21.80;19.97;;;;;;;14.70;100.00;101802.50;5013369;28;20465;-44
2023/07/11 01:48:30;;;;;;;22.23;20.30;;;;;;;14.71;100.00;101806.03;5014027;28;20520;-42
2023/07/11 01:50:58;;;;;;;21.03;19.27;;;;;;;14.71;100.00;101814.91;5013575;28;20461;-43
2023/07/11 01:53:25;;;;;;;20.73;19.10;;;;;;;14.71;100.00;101812.22;5013124;28;20455;-46
2023/07/11 01:55:59;;;;;;;21.57;19.17;;;;;;;14.73;100.00;101810.16;5013305;28;20467;-42
2023/07/11 01:58:26;;;;;;;20.87;19.07;;;;;;;14.73;100.00;101795.91;5013420;28;20421;-44
2023/07/11 02:00:55;;;;;;;19.50;17.93;;;;;;;14.74;100.00;101784.16;5013433;28;20449;-43
2023/07/11 02:03:23;;;;;;;21.57;19.93;;;;;;;14.73;100.00;101786.00;5013082;28;20437;-47
2023/07/11 02:05:51;;;;;;;22.13;18.40;;;;;;;14.74;100.00;101792.22;5011762;28;20556;-45
2023/07/11 02:08:19;;;;;;;22.90;21.00;;;;;;;14.73;100.00;101790.53;5013218;28;20469;-45
2023/07/11 02:10:46;;;;;;;23.10;20.87;;;;;;;14.72;100.00;101786.22;5013451;28;20455;-42
2023/07/11 02:13:15;;;;;;;23.10;21.20;;;;;;;14.71;100.00;101784.56;5013237;28;20559;-43
2023/07/11 02:15:43;;;;;;;24.63;22.40;;;;;;;14.69;100.00;101787.44;5011935;28;20491;-48
2023/07/11 02:18:11;;;;;;;23.80;19.60;;;;;;;14.67;100.00;101775.22;5013346;28;20788;-43
2023/07/11 02:20:43;;;;;;;22.43;20.60;;;;;;;14.66;100.00;101773.59;5012340;28;20488;-43
2023/07/11 02:23:11;;;;;;;24.50;22.27;;;;;;;14.65;100.00;101780.81;5009731;28;20436;-42
2023/07/11 02:25:39;;;;;;;22.63;20.87;;;;;;;14.60;100.00;101764.47;5012458;28;20465;-42
2023/07/11 02:28:07;;;;;;;23.10;21.50;;;;;;;14.57;100.00;101766.72;5012438;28;20444;-45
2023/07/11 02:30:36;;;;;;;21.97;20.37;;;;;;;14.57;100.00;101769.41;5012742;28;20432;-41
2023/07/11 02:33:04;;;;;;;21.80;20.20;;;;;;;14.51;100.00;101754.91;5012174;28;20445;-46
2023/07/11 02:35:32;;;;;;;23.50;21.87;;;;;;;14.49;100.00;101762.31;5010142;28;20490;-46
2023/07/11 02:38:00;;;;;;;20.80;19.33;;;;;;;14.49;100.00;101761.47;5009443;28;20468;-45
2023/07/11 02:40:28;;;;;;;20.50;19.00;;;;;;;14.48;100.00;101758.00;5011218;28;20436;-48
2023/07/11 02:42:55;;;;;;;22.40;20.70;;;;;;;14.44;100.00;101759.41;5011357;28;20483;-43
2023/07/11 02:45:23;;;;;;;23.07;21.27;;;;;;;14.42;100.00;101747.22;5010781;28;20528;-42
2023/07/11 02:47:53;;;;;;;26.83;24.47;;;;;;;14.40;100.00;101753.59;5010080;28;20520;-41
2023/07/11 02:50:21;;;;;;;26.67;23.20;;;;;;;14.37;100.00;101737.06;5010439;28;20499;-42
2023/07/11 02:52:49;;;;;;;23.00;21.30;;;;;;;14.37;100.00;101737.91;5008646;28;20963;-41
2023/07/11 02:55:18;;;;;;;21.37;19.77;;;;;;;14.38;100.00;101741.41;5008891;28;20465;-44
2023/07/11 02:57:45;;;;;;;25.30;23.30;;;;;;;14.36;100.00;101741.63;5009053;28;20435;-44
2023/07/11 03:00:13;;;;;;;23.23;21.57;;;;;;;14.37;100.00;101734.38;5009407;28;20438;-44
2023/07/11 03:02:41;;;;;;;23.77;21.67;;;;;;;14.38;100.00;101738.72;5008583;28;20820;-42
2023/07/11 03:05:11;;;;;;;25.40;22.97;;;;;;;14.38;100.00;101739.56;5008437;28;20468;-42
2023/07/11 03:07:38;;;;;;;23.60;21.80;;;;;;;14.40;100.00;101733.97;5010966;28;20437;-44
2023/07/11 03:10:07;;;;;;;26.50;23.83;;;;;;;14.44;100.00;101740.63;5009807;28;20883;-42
2023/07/11 03:12:34;;;;;;;22.10;20.40;;;;;;;14.46;100.00;101735.88;5008709;28;20449;-42
2023/07/11 03:15:02;;;;;;;22.57;20.80;;;;;;;14.51;100.00;101733.44;5009930;28;20489;-43
2023/07/11 03:17:31;;;;;;;24.90;22.57;;;;;;;14.57;100.00;101723.78;5009794;28;20429;-43
2023/07/11 03:19:59;;;;;;;23.80;21.70;;;;;;;14.63;100.00;101714.91;5009860;28;20491;-45
2023/07/11 03:22:29;;;;;;;23.17;21.40;;;;;;;14.70;100.00;101721.13;5008425;28;20997;-45
2023/07/11 03:24:56;;;;;;;20.37;18.93;;;;;;;14.77;100.00;101712.09;5008504;28;20464;-47
2023/07/11 03:27:24;;;;;;;24.97;22.40;;;;;;;14.86;100.00;101720.78;5008708;28;20444;-47
2023/07/11 03:29:52;;;;;;;21.07;19.37;;;;;;;14.95;100.00;101724.97;5009540;28;20455;-41
2023/07/11 03:32:20;;;;;;;23.33;21.13;;;;;;;15.18;100.00;101719.22;5009316;28;20504;-43
2023/07/11 03:34:47;;;;;;;23.03;21.23;;;;;;;15.28;100.00;101717.00;5007962;28;20475;-41
2023/07/11 03:37:25;;;;;;;20.80;18.93;;;;;;;15.31;100.00;101711.22;5010695;28;20439;-44
2023/07/11 03:39:54;;;;;;;22.43;20.23;;;;;;;15.41;100.00;101711.66;5008639;28;20465;-42
2023/07/11 03:42:22;;;;;;;20.67;18.83;;;;;;;15.52;100.00;101716.44;5007887;28;20535;-42
2023/07/11 03:44:50;;;;;;;18.73;17.40;;;;;;;15.58;100.00;101701.34;5007804;28;20477;-42
2023/07/11 03:47:17;;;;;;;21.37;19.60;;;;;;;15.64;100.00;101704.06;5008685;28;20532;-47
2023/07/11 03:49:45;;;;;;;21.43;19.70;;;;;;;15.66;100.00;101701.97;5010654;28;20487;-42
2023/07/11 03:52:13;;;;;;;20.60;18.83;;;;;;;15.70;100.00;101688.94;5007635;28;20455;-44
2023/07/11 03:54:40;;;;;;;18.87;17.37;;;;;;;15.81;100.00;101691.00;5007154;28;20499;-45
2023/07/11 03:57:09;;;;;;;20.37;18.53;;;;;;;15.89;100.00;101680.03;5008320;28;20504;-45
2023/07/11 03:59:37;;;;;;;19.83;17.83;;;;;;;16.06;100.00;101678.56;5009674;28;20532;-43
2023/07/11 04:02:05;;;;;;;16.97;15.80;;;;;;;16.21;100.00;101686.41;5008027;28;20978;-44
2023/07/11 04:04:33;;;;;;;17.13;15.77;;;;;;;16.45;100.00;101693.78;5007880;28;20469;-45
2023/07/11 04:07:01;;;;;;;18.53;16.97;;;;;;;16.64;100.00;101682.13;5010482;28;20480;-44
2023/07/11 04:09:29;;;;;;;18.37;16.97;;;;;;;16.85;100.00;101686.41;5010634;28;20519;-43
2023/07/11 04:11:57;;;;;;;17.10;16.10;;;;;;;17.10;100.00;101690.84;5011291;28;20461;-42
2023/07/11 04:14:26;;;;;;;16.53;15.43;;;;;;;17.40;100.00;101680.28;5011023;28;20815;-42
2023/07/11 04:16:53;;;;;;;16.80;15.40;;;;;;;17.69;100.00;101678.81;5007940;28;20521;-44
2023/07/11 04:19:21;;;;;;;15.30;14.40;;;;;;;17.88;100.00;101672.44;5009927;28;20935;-47
2023/07/11 04:21:49;;;;;;;15.27;14.27;;;;;;;17.99;100.00;101671.69;5007277;28;20463;-44
2023/07/11 04:24:16;;;;;;;17.60;16.10;;;;;;;18.00;100.00;101670.66;5007601;28;20475;-42
2023/07/11 04:26:44;;;;;;;15.87;14.87;;;;;;;17.93;100.00;101664.47;5008270;28;21159;-46
2023/07/11 04:29:12;;;;;;;16.60;14.50;;;;;;;17.89;100.00;101663.25;5010139;28;20869;-43
2023/07/11 04:31:41;;;;;;;16.77;15.67;;;;;;;17.81;100.00;101660.03;5010579;28;20823;-42
2023/07/11 04:34:08;;;;;;;16.30;14.93;;;;;;;17.70;100.00;101658.91;5007716;28;20472;-42
2023/07/11 04:36:36;;;;;;;16.37;14.90;;;;;;;17.57;100.00;101649.03;5009764;28;20429;-42
2023/07/11 04:39:04;;;;;;;14.53;13.53;;;;;;;17.54;100.00;101654.00;5010085;28;20556;-42
2023/07/11 04:41:32;;;;;;;15.00;13.90;;;;;;;17.52;100.00;101650.72;5011218;28;20461;-42
2023/07/11 04:43:59;;;;;;;16.00;14.60;;;;;;;17.49;100.00;101646.59;5008046;28;20429;-42
2023/07/11 04:46:27;;;;;;;14.30;13.40;;;;;;;17.50;100.00;101648.22;5010815;28;20527;-44
2023/07/11 04:48:56;;;;;;;15.97;14.40;;;;;;;17.48;100.00;101642.25;5008461;28;20540;-42
2023/07/11 04:51:24;;;;;;;14.30;13.30;;;;;;;17.57;100.00;101653.59;5007870;28;20449;-46
2023/07/11 04:53:51;;;;;;;13.37;12.77;;;;;;;17.67;100.00;101648.53;5008346;28;20541;-44
2023/07/11 04:56:19;;;;;;;15.03;13.83;;;;;;;17.83;100.00;101641.78;5010521;28;20929;-45
2023/07/11 04:58:47;;;;;;;14.83;13.80;;;;;;;18.07;100.00;101647.09;5010517;28;20472;-45
2023/07/11 05:01:17;;;;;;;14.53;13.53;;;;;;;18.30;100.00;101637.53;5011087;28;20448;-46
2023/07/11 05:03:49;;;;;;;14.10;13.20;;;;;;;18.71;100.00;101637.66;5011124;28;20432;-50
2023/07/11 05:06:18;;;;;;;15.23;14.20;;;;;;;18.93;100.00;101627.16;5010037;28;20515;-47
2023/07/11 05:08:46;;;;;;;13.53;12.80;;;;;;;18.95;100.00;101625.03;5013904;28;20459;-42
2023/07/11 05:11:16;;;;;;;14.60;13.40;;;;;;;19.03;100.00;101619.31;5013978;28;20535;-44
2023/07/11 05:13:46;;;;;;;14.73;13.67;;;;;;;19.08;100.00;101620.28;5014208;28;20536;-42
2023/07/11 05:16:16;;;;;;;14.53;13.33;;;;;;;19.18;100.00;101622.41;5013823;28;20468;-43
2023/07/11 05:18:44;;;;;;;14.93;13.70;;;;;;;19.23;100.00;101611.72;5012915;28;20519;-42
2023/07/11 05:21:15;;;;;;;13.13;12.33;;;;;;;19.29;100.00;101608.09;5012871;28;20449;-43
2023/07/11 05:23:44;;;;;;;14.33;13.33;;;;;;;19.50;100.00;101609.44;5012228;28;20523;-42
2023/07/11 05:26:12;;;;;;;13.63;12.77;;;;;;;19.76;100.00;101608.97;5013714;28;20508;-42
2023/07/11 05:28:40;;;;;;;14.50;13.30;;;;;;;20.59;100.00;101587.72;5013034;28;20451;-43
2023/07/11 05:31:08;;;;;;;14.30;13.70;;;;;;;21.34;100.00;101580.13;5013058;28;20459;-44
2023/07/11 05:33:36;;;;;;;13.93;13.20;;;;;;;22.85;100.00;101569.63;5011773;28;20520;-43
2023/07/11 05:36:13;;;;;;;14.20;13.20;;;;;;;23.95;100.00;101574.25;5012569;28;20466;-43
2023/07/11 05:38:40;;;;;;;12.40;11.80;;;;;;;24.93;100.00;101556.84;5014061;28;20431;-43
2023/07/11 05:41:09;;;;;;;11.73;10.97;;;;;;;25.55;100.00;101564.75;5013681;28;20792;-42
2023/07/11 05:43:37;;;;;;;10.53;10.03;;;;;;;25.72;100.00;101553.50;5011549;28;20479;-44
2023/07/11 05:46:05;;;;;;;11.57;10.80;;;;;;;26.15;100.00;101552.00;4987034;28;20475;-46
2023/07/11 05:48:33;;;;;;;11.10;10.07;;;;;;;26.10;100.00;101549.28;4978702;28;20430;-45
2023/07/11 05:51:03;;;;;;;9.97;9.27;;;;;;;26.36;100.00;101542.63;4979358;28;20460;-46
2023/07/11 05:53:31;;;;;;;9.40;8.80;;;;;;;26.05;100.00;101530.16;4991187;28;20435;-43
2023/07/11 05:55:59;;;;;;;7.70;7.10;;;;;;;25.62;100.00;101532.50;4992124;28;20473;-41
2023/07/11 05:58:30;;;;;;;5.93;5.50;;;;;;;25.17;100.00;101530.66;4991865;28;20430;-43
2023/07/11 06:00:59;;;;;;;7.33;5.20;;;;;;;24.78;99.40;101535.00;4970723;28;20486;-46
2023/07/11 06:03:29;;;;;;;7.83;6.10;;;;;;;24.43;100.00;101534.94;4982069;28;20932;-45
2023/07/11 06:06:01;;;;;;;5.80;5.27;;;;;;;24.22;100.00;101534.06;4989194;28;20484;-51
2023/07/11 06:08:29;;;;;;;6.43;5.70;;;;;;;24.04;100.00;101538.03;4979898;28;20505;-44
2023/07/11 06:10:58;;;;;;;6.33;5.73;;;;;;;23.81;100.00;101527.59;4969878;28;20513;-44
2023/07/11 06:13:26;;;;;;;6.70;5.53;;;;;;;;;;4971527;28;20434;-47
2023/07/11 06:15:59;;;;;;;6.53;5.67;;;;;;;24.55;100.00;101525.41;4970172;28;20463;-43
2023/07/11 06:18:27;;;;;;;10.53;5.50;;;;;;;25.21;100.00;101514.53;4990916;28;20432;-45
2023/07/11 06:20:54;;;;;;;8.23;6.40;;;;;;;25.80;98.47;101521.00;4993662;28;20449;-43
2023/07/11 06:23:22;;;;;;;7.47;6.60;;;;;;;26.93;96.56;101511.88;4993089;28;20469;-44
2023/07/11 06:25:50;;;;;;;6.90;5.40;;;;;;;27.09;94.29;101509.81;4976974;28;20934;-48
2023/07/11 06:28:18;;;;;;;6.40;5.90;;;;;;;27.05;89.73;101511.50;4973809;28;20482;-49
2023/07/11 06:30:45;;;;;;;6.67;5.90;;;;;;;26.77;84.84;101511.13;4973688;28;22112;-44
2023/07/11 06:33:17;;;;;;;6.37;5.80;;;;;;;26.52;84.40;101497.66;4973764;28;20445;-45
2023/07/11 06:35:49;;;;;;;6.17;5.67;;;;;;;26.64;84.75;101500.81;4972607;28;20466;-46
2023/07/11 06:38:17;;;;;;;7.43;5.50;;;;;;;26.60;86.52;101496.22;4973104;28;20501;-45
2023/07/11 06:40:48;;;;;;;7.07;5.80;;;;;;;26.56;79.10;101482.28;4973607;28;20830;-45
2023/07/11 06:43:16;;;;;;;7.70;6.17;;;;;;;26.49;84.86;101487.28;4973592;28;20462;-43
2023/07/11 06:45:45;;;;;;;7.80;6.67;;;;;;;26.35;86.22;101480.81;4972657;28;20577;-43
2023/07/11 06:48:15;;;;;;;6.07;5.47;;;;;;;26.64;89.51;101476.22;4972930;28;20530;-47
2023/07/11 06:50:43;;;;;;;7.10;5.40;;;;;;;26.50;87.53;101477.97;4973476;28;20434;-44
2023/07/11 06:53:10;;;;;;;6.13;5.60;;;;;;;26.52;85.10;101469.50;4973496;28;20434;-43
2023/07/11 06:55:38;;;;;;;5.90;5.30;;;;;;;26.91;85.43;101470.28;4973217;28;20501;-48
2023/07/11 06:58:05;;;;;;;6.47;5.97;;;;;;;27.03;85.38;101461.69;4973492;28;20430;-44
2023/07/11 07:00:33;;;;;;;5.73;5.20;;;;;;;26.62;78.80;101458.44;4973821;28;20438;-50
2023/07/11 07:03:01;;;;;;;6.20;5.70;;;;;;;26.83;81.34;101449.00;4970584;28;20856;-44
2023/07/11 07:05:30;;;;;;;9.53;7.20;;;;;;;27.20;85.14;101443.72;4969615;28;20513;-45
2023/07/11 07:07:58;;;;;;;6.23;5.07;;;;;;;26.91;80.56;101440.97;4969290;28;20477;-45
2023/07/11 07:10:40;;;;;;;7.70;4.83;;;;;;;26.37;80.88;101435.66;4969737;28;20521;-44
2023/07/11 07:13:07;;;;;;;5.60;4.50;;;;;;;26.00;83.41;101440.00;4969499;28;20474;-46
2023/07/11 07:15:35;;;;;;;6.37;5.00;;;;;;;26.00;86.15;101438.06;4969449;28;20470;-43
2023/07/11 07:18:03;;;;;;;4.50;4.10;;;;;;;26.07;86.98;101443.25;4970056;28;20552;-45
2023/07/11 07:20:32;;;;;;;8.40;5.10;;;;;;;26.31;85.54;101442.25;4969921;28;20458;-48
2023/07/11 07:23:15;;;;;;;5.13;4.73;;;;;;;26.29;87.88;101435.44;4969426;28;21111;-46
2023/07/11 07:25:50;;;;;;;6.10;4.43;;;;;;;26.17;86.22;101437.72;4969068;28;20904;-49
2023/07/11 07:28:18;;;;;;;5.50;4.37;;;;;;;26.63;87.70;101430.81;4969092;28;20478;-45
2023/07/11 07:30:47;;;;;;;5.83;5.17;;;;;;;26.62;81.96;101423.72;4968594;28;21056;-44
2023/07/11 07:33:15;;;;;;;5.93;5.00;;;;;;;27.17;77.68;101425.13;4969043;28;20438;-50
2023/07/11 07:35:45;;;;;;;5.57;5.10;;;;;;;27.37;75.81;101426.81;4968687;28;20476;-46
2023/07/11 07:38:13;;;;;;;6.90;4.73;;;;;;;27.65;81.72;101423.22;4969652;28;20454;-45
2023/07/11 07:40:41;;;;;;;11.20;4.03;;;;;;;28.42;75.16;101416.34;4969479;28;20865;-44
2023/07/11 07:43:09;;;;;;;8.00;4.73;;;;;;;28.95;70.10;101418.72;4969641;28;20462;-43
2023/07/11 07:45:36;;;;;;;6.00;4.17;;;;;;;29.46;72.49;101413.09;4969272;28;20489;-44
2023/07/11 07:48:05;;;;;;;6.37;3.90;;;;;;;29.74;64.91;101411.94;4969393;28;20973;-45
2023/07/11 07:50:32;;;;;;;6.83;3.97;;;;;;;29.86;66.96;101417.75;4969325;28;20255;-47
2023/07/11 07:53:01;;;;;;;5.97;4.70;;;;;;;30.11;60.09;101413.59;4968870;28;20551;-43
2023/07/11 07:55:29;;;;;;;4.30;3.90;;;;;;;30.52;62.80;101419.78;4969161;28;20257;-42
2023/07/11 07:57:57;;;;;;;4.33;3.83;;;;;;;30.96;61.52;101402.41;4969392;28;20230;-44
2023/07/11 08:00:24;;;;;;;6.30;4.57;;;;;;;30.90;60.68;101398.13;4968859;28;20205;-46
2023/07/11 08:02:52;;;;;;;11.13;4.40;;;;;;;30.71;58.97;101395.59;4968795;28;20202;-45
2023/07/11 08:05:20;;;;;;;6.40;4.17;;;;;;;30.69;55.67;101397.03;4968998;28;20227;-47
2023/07/11 08:07:48;;;;;;;5.93;4.00;;;;;;;30.58;55.71;101390.19;4969161;28;20218;-44
2023/07/11 08:10:18;;;;;;;5.30;3.90;;;;;;;30.51;55.90;101390.63;4969076;28;20206;-44
2023/07/11 08:12:46;;;;;;;4.43;4.13;;;;;;;30.21;55.37;101391.34;4968786;28;20713;-46
2023/07/11 08:15:14;;;;;;;4.10;3.80;;;;;;;29.49;58.00;101387.75;4968627;28;20259;-43
2023/07/11 08:17:45;;;;;;;5.10;4.07;;;;;;;29.64;59.37;101381.91;4968775;28;20202;-43
2023/07/11 08:20:14;;;;;;;7.60;4.10;;;;;;;29.59;57.87;101379.28;4968945;28;20214;-44
2023/07/11 08:22:42;;;;;;;5.00;4.60;;;;;;;29.43;58.88;101373.31;4968924;28;20528;-49
2023/07/11 08:25:11;;;;;;;4.90;4.50;;;;;;;29.42;59.94;101374.41;4968575;28;20649;-43
2023/07/11 08:27:40;;;;;;;6.23;4.70;;;;;;;29.45;58.72;101373.00;4968443;28;20478;-45
2023/07/11 08:30:08;;;;;;;6.70;4.50;;;;;;;29.39;59.05;101372.28;4969340;28;20570;-47
2023/07/11 08:32:38;;;;;;;5.03;4.10;;;;;;;29.29;60.38;101369.75;4968651;28;20266;-44
2023/07/11 08:35:09;;;;;;;7.30;5.00;;;;;;;29.47;60.71;101363.34;4968605;28;20462;-46
2023/07/11 08:37:36;;;;;;;5.00;4.07;;;;;;;29.84;61.03;101365.00;4969038;28;20462;-44
2023/07/11 08:40:06;;;;;;;8.37;4.60;;;;;;;30.27;59.53;101361.75;4968835;28;20195;-43
2023/07/11 08:42:40;;;;;;;6.20;4.50;;;;;;;30.52;57.45;101370.25;4971697;28;20478;-44
2023/07/11 08:45:17;;;;;;;4.40;4.10;;;;;;;30.67;54.89;101352.50;4972000;28;20269;-43
2023/07/11 08:47:54;;;;;;;6.30;4.10;;;;;;;30.93;56.17;101358.13;4972336;28;20668;-46
2023/07/11 08:50:26;;;;;;;4.60;4.20;;;;;;;31.22;58.00;101361.16;4972460;28;20444;-43
2023/07/11 08:53:06;;;;;;;4.47;4.00;;;;;;;31.07;54.57;101342.31;4972014;28;20301;-43
2023/07/11 08:55:39;;;;;;;6.70;4.73;;;;;;;31.04;53.09;101348.47;4972051;28;20637;-44
2023/07/11 08:58:13;;;;;;;4.70;3.80;;;;;;;30.84;54.46;101347.06;4972361;28;20465;-45
2023/07/11 09:00:44;;;;;;;6.93;4.50;;;;;;;30.38;53.97;101341.13;4972389;28;20199;-42
2023/07/11 09:03:22;;;;;;;4.93;4.43;;;;;;;29.98;54.69;101335.53;4972000;28;20203;-44
2023/07/11 09:05:55;;;;;;;4.10;3.90;;;;;;;30.05;54.76;101337.81;4972123;28;20497;-46
2023/07/11 09:08:23;;;;;;;6.43;4.20;;;;;;;29.93;53.74;101337.56;4972071;28;20686;-43
2023/07/11 09:11:01;;;;;;;5.67;4.40;;;;;;;29.93;53.24;101330.13;4971779;28;20469;-44
2023/07/11 09:13:44;;;;;;;6.17;5.23;;;;;;;30.02;54.76;101325.50;4971623;28;20529;-45
2023/07/11 09:16:23;;;;;;;6.00;4.43;;;;;;;30.13;53.86;101331.59;4971789;28;20462;-47
2023/07/11 09:18:57;;;;;;;4.90;4.50;;;;;;;30.21;52.73;101325.31;4972116;28;20217;-47
2023/07/11 09:21:32;;;;;;;6.73;4.60;;;;;;;30.49;54.37;101315.81;4971401;28;20214;-43
2023/07/11 09:24:10;;;;;;;4.23;3.73;;;;;;;31.14;54.17;101313.19;4971289;28;20202;-48
2023/07/11 09:26:47;;;;;;;5.40;4.83;;;;;;;30.78;52.26;101314.47;4972013;28;20202;-45
2023/07/11 09:29:16;;;;;;;4.23;3.83;;;;;;;30.55;52.92;101308.22;4971883;28;20230;-48
2023/07/11 09:31:51;;;;;;;4.30;3.93;;;;;;;30.31;53.25;101308.56;4971256;28;20283;-49
2023/07/11 09:34:23;;;;;;;4.77;4.10;;;;;;;30.27;54.39;101304.00;4971537;28;20225;-43
2023/07/11 09:36:51;;;;;;;4.80;4.60;;;;;;;30.17;54.82;101305.88;4971516;28;20431;-46
2023/07/11 09:39:27;;;;;;;4.20;3.90;;;;;;;30.30;54.31;101300.59;4971925;28;20245;-42
2023/07/11 09:42:01;;;;;;;5.73;4.50;;;;;;;30.88;52.46;101301.25;4970852;28;20458;-44
2023/07/11 09:44:29;;;;;;;4.73;4.33;;;;;;;31.45;51.92;101281.94;4971069;28;20468;-42
2023/07/11 09:47:06;;;;;;;4.30;3.90;;;;;;;31.45;50.99;101288.25;4971291;28;20238;-43
2023/07/11 09:49:35;;;;;;;4.63;3.60;;;;;;;31.71;49.75;101272.56;4971450;28;20218;-43
2023/07/11 09:52:04;;;;;;;4.50;4.17;;;;;;;31.61;49.95;101277.59;4970866;28;20309;-42
2023/07/11 09:54:44;;;;;;;7.23;4.10;;;;;;;31.88;48.25;101263.47;4970233;28;20222;-43
2023/07/11 09:57:30;;;;;;;4.20;3.87;;;;;;;31.78;48.14;101266.53;4971410;28;20241;-42
2023/07/11 10:00:00;;;;;;;5.10;4.60;;;;;;;31.89;47.79;101267.84;4970958;28;20249;-43
2023/07/11 10:02:32;;;;;;;5.60;4.50;;;;;;;32.00;48.44;101271.06;4971094;28;20285;-43
2023/07/11 10:05:00;;;;;;;4.27;3.97;;;;;;;31.71;45.85;101264.31;4970355;28;20309;-42
2023/07/11 10:07:32;;;;;;;4.77;4.30;;;;;;;31.76;45.12;101263.31;4971600;28;20289;-43
2023/07/11 10:10:02;;;;;;;4.37;3.97;;;;;;;31.66;45.55;101252.63;4972941;28;20254;-42
2023/07/11 10:12:30;;;;;;;4.07;3.77;;;;;;;31.77;45.57;101253.91;4970319;28;20652;-45
2023/07/11 10:15:00;;;;;;;4.10;3.80;;;;;;;31.82;44.64;101253.72;4972902;28;20801;-42
2023/07/11 10:17:35;;;;;;;4.23;3.60;;;;;;;31.96;46.39;101261.84;4973146;28;20203;-45
2023/07/11 10:20:06;;;;;;;4.03;3.70;;;;;;;31.84;45.66;101245.16;4970722;28;20217;-43
2023/07/11 10:22:49;;;;;;;4.50;4.10;;;;;;;31.92;44.83;101249.81;4972016;28;20219;-42
2023/07/11 10:25:19;;;;;;;3.97;3.77;;;;;;;31.97;45.74;101253.22;4970764;28;20258;-43
2023/07/11 10:27:51;;;;;;;3.80;3.60;;;;;;;31.90;44.88;101243.84;4967306;28;20202;-43
2023/07/11 10:30:26;;;;;;;4.97;4.67;;;;;;;31.90;44.37;101224.53;4971984;28;20442;-44
2023/07/11 10:32:59;;;;;;;8.47;4.20;;;;;;;31.98;44.24;101227.25;4973367;28;20188;-46
2023/07/11 10:35:40;;;;;;;4.37;4.07;;;;;;;31.86;44.44;101237.34;4972109;28;20562;-42
2023/07/11 10:38:17;;;;;;;4.90;3.70;;;;;;;31.89;45.19;101232.00;4972001;28;20293;-44
2023/07/11 10:40:49;;;;;;;4.43;4.13;;;;;;;32.12;45.95;101225.13;4971234;28;20202;-45
2023/07/11 10:43:26;;;;;;;5.47;4.43;;;;;;;32.09;44.49;101220.28;4972184;28;20226;-43
2023/07/11 10:45:59;;;;;;;4.33;3.90;;;;;;;32.19;44.75;101227.41;4970697;28;20671;-42
2023/07/11 10:48:37;;;;;;;4.80;4.50;;;;;;;32.30;42.99;101221.19;4971067;28;20249;-44
2023/07/11 10:51:08;;;;;;;4.97;4.67;;;;;;;32.49;44.34;101217.22;4970817;28;20215;-45
2023/07/11 10:53:43;;;;;;;5.10;4.70;;;;;;;32.64;43.18;101223.00;4971008;28;20210;-49
2023/07/11 10:56:16;;;;;;;5.30;4.20;;;;;;;32.55;42.76;101200.16;4970293;28;20233;-45
2023/07/11 10:58:46;;;;;;;3.90;3.70;;;;;;;32.71;42.93;101203.13;4972307;28;20218;-45
2023/07/11 11:01:25;;;;;;;7.30;4.07;;;;;;;32.69;41.98;101211.78;4972810;28;20219;-47
2023/07/11 11:04:05;;;;;;;5.60;4.50;;;;;;;32.60;42.61;101202.72;4971718;28;20602;-45
2023/07/11 11:06:50;;;;;;;4.10;3.90;;;;;;;32.64;42.55;101191.81;4971921;28;20246;-44
2023/07/11 11:09:25;;;;;;;3.83;3.53;;;;;;;32.60;40.90;101190.88;4968228;28;20310;-44
2023/07/11 11:12:04;;;;;;;5.87;4.70;;;;;;;32.76;42.74;101184.44;4969599;28;20250;-45
2023/07/11 11:14:41;;;;;;;4.60;4.30;;;;;;;32.55;40.57;101180.84;4970493;28;20321;-46
2023/07/11 11:17:26;;;;;;;5.57;4.20;;;;;;;32.41;41.56;101190.47;4972488;28;20195;-45
2023/07/11 11:20:12;;;;;;;4.87;4.57;;;;;;;32.10;41.46;101180.53;4970261;28;20543;-42
2023/07/11 11:22:53;;;;;;;4.60;4.20;;;;;;;32.23;42.85;101181.41;4970082;28;20218;-42
2023/07/11 11:25:27;;;;;;;3.83;3.53;;;;;;;32.22;42.23;101179.81;4969943;28;20225;-46